sensor_id;sensor_type;location;lat;lon;timestamp;pressure;altitude;pressure_sealevel;temperature;humidity
57442;BME280;43284;47.042;15.498;2024-03-17T00:00:43;97489.84;;;6.32;100.00
57442;BME280;43284;47.042;15.498;2024-03-17T00:03:08;97500.16;;;6.36;100.00
57442;BME280;43284;47.042;15.498;2024-03-17T00:05:35;97497.56;;;6.36;100.00
57442;BME280;43284;47.042;15.498;2024-03-17T00:08:01;97494.16;;;6.34;100.00
57442;BME280;43284;47.042;15.498;2024-03-17T00:10:32;97495.97;;;6.31;100.00
57442;BME280;43284;47.042;15.498;2024-03-17T00:12:58;97500.31;;;6.30;100.00
57442;BME280;43284;47.042;15.498;2024-03-17T00:15:24;97502.13;;;6.27;100.00
57442;BME280;43284;47.042;15.498;2024-03-17T00:17:49;97501.38;;;6.23;100.00
57442;BME280;43284;47.042;15.498;2024-03-17T00:20:15;97508.28;;;6.23;100.00
57442;BME280;43284;47.042;15.498;2024-03-17T00:22:50;97502.44;;;6.14;100.00
57442;BME280;43284;47.042;15.498;2024-03-17T00:25:16;97507.69;;;6.11;100.00
57442;BME280;43284;47.042;15.498;2024-03-17T00:27:43;97496.50;;;6.09;100.00
57442;BME280;43284;47.042;15.498;2024-03-17T00:30:10;97506.88;;;6.09;100.00
57442;BME280;43284;47.042;15.498;2024-03-17T00:32:38;97501.81;;;6.05;100.00
57442;BME280;43284;47.042;15.498;2024-03-17T00:35:06;97500.19;;;6.01;100.00
57442;BME280;43284;47.042;15.498;2024-03-17T00:37:32;97500.22;;;5.99;100.00
57442;BME280;43284;47.042;15.498;2024-03-17T00:39:59;97497.56;;;6.02;100.00
57442;BME280;43284;47.042;15.498;2024-03-17T00:42:25;97507.94;;;6.02;100.00
57442;BME280;43284;47.042;15.498;2024-03-17T00:44:51;97513.13;;;6.02;100.00
57442;BME280;43284;47.042;15.498;2024-03-17T00:47:16;97509.81;;;5.94;100.00
57442;BME280;43284;47.042;15.498;2024-03-17T00:49:42;97504.72;;;5.91;100.00
57442;BME280;43284;47.042;15.498;2024-03-17T00:52:07;97508.09;;;5.96;100.00
57442;BME280;43284;47.042;15.498;2024-03-17T00:54:33;97492.47;;;5.97;100.00
57442;BME280;43284;47.042;15.498;2024-03-17T00:56:58;97496.78;;;5.98;100.00
57442;BME280;43284;47.042;15.498;2024-03-17T00:59:24;97501.03;;;6.01;100.00
57442;BME280;43284;47.042;15.498;2024-03-17T01:01:49;97498.44;;;6.01;100.00
57442;BME280;43284;47.042;15.498;2024-03-17T01:04:15;97511.38;;;6.03;100.00
57442;BME280;43284;47.042;15.498;2024-03-17T01:06:41;97504.44;;;6.03;100.00
57442;BME280;43284;47.042;15.498;2024-03-17T01:09:07;97502.75;;;6.02;100.00
57442;BME280;43284;47.042;15.498;2024-03-17T01:11:34;97499.44;;;5.97;100.00
57442;BME280;43284;47.042;15.498;2024-03-17T01:13:59;97510.75;;;5.91;100.00
57442;BME280;43284;47.042;15.498;2024-03-17T01:16:25;97510.06;;;5.85;100.00
57442;BME280;43284;47.042;15.498;2024-03-17T01:18:50;97512.66;;;5.85;100.00
57442;BME280;43284;47.042;15.498;2024-03-17T01:21:16;97508.19;;;5.90;100.00
57442;BME280;43284;47.042;15.498;2024-03-17T01:23:41;97507.34;;;5.89;100.00
57442;BME280;43284;47.042;15.498;2024-03-17T01:26:10;97503.88;;;5.90;100.00
57442;BME280;43284;47.042;15.498;2024-03-17T01:28:36;97506.66;;;5.83;100.00
57442;BME280;43284;47.042;15.498;2024-03-17T01:31:06;97507.72;;;5.74;100.00
57442;BME280;43284;47.042;15.498;2024-03-17T01:33:31;97503.22;;;5.82;100.00
57442;BME280;43284;47.042;15.498;2024-03-17T01:35:57;97500.03;;;5.71;100.00
57442;BME280;43284;47.042;15.498;2024-03-17T01:38:22;97499.97;;;5.72;100.00
57442;BME280;43284;47.042;15.498;2024-03-17T01:40:48;97507.16;;;5.61;100.00
57442;BME280;43284;47.042;15.498;2024-03-17T01:43:13;97507.22;;;5.58;100.00
57442;BME280;43284;47.042;15.498;2024-03-17T01:45:39;97511.59;;;5.56;100.00
57442;BME280;43284;47.042;15.498;2024-03-17T01:48:10;97512.63;;;5.49;100.00
57442;BME280;43284;47.042;15.498;2024-03-17T01:50:39;97511.00;;;5.45;100.00
57442;BME280;43284;47.042;15.498;2024-03-17T01:53:06;97519.75;;;5.39;100.00
57442;BME280;43284;47.042;15.498;2024-03-17T01:55:33;97517.06;;;5.42;100.00
57442;BME280;43284;47.042;15.498;2024-03-17T01:58:01;97507.59;;;5.43;100.00
57442;BME280;43284;47.042;15.498;2024-03-17T02:00:27;97510.13;;;5.44;100.00
57442;BME280;43284;47.042;15.498;2024-03-17T02:02:54;97517.91;;;5.44;100.00
57442;BME280;43284;47.042;15.498;2024-03-17T02:05:20;97511.16;;;5.37;100.00
57442;BME280;43284;47.042;15.498;2024-03-17T02:07:45;97513.75;;;5.37;100.00
57442;BME280;43284;47.042;15.498;2024-03-17T02:10:11;97508.63;;;5.34;100.00
57442;BME280;43284;47.042;15.498;2024-03-17T02:12:37;97506.31;;;5.22;100.00
57442;BME280;43284;47.042;15.498;2024-03-17T02:15:03;97509.75;;;5.22;100.00
57442;BME280;43284;47.042;15.498;2024-03-17T02:17:32;97502.88;;;5.20;100.00
57442;BME280;43284;47.042;15.498;2024-03-17T02:19:57;97512.50;;;5.16;100.00
57442;BME280;43284;47.042;15.498;2024-03-17T02:22:23;97505.50;;;5.18;100.00
57442;BME280;43284;47.042;15.498;2024-03-17T02:24:49;97506.31;;;5.20;100.00
57442;BME280;43284;47.042;15.498;2024-03-17T02:27:14;97506.41;;;5.17;100.00
57442;BME280;43284;47.042;15.498;2024-03-17T02:29:40;97506.38;;;5.19;100.00
57442;BME280;43284;47.042;15.498;2024-03-17T02:32:06;97505.47;;;5.20;100.00
57442;BME280;43284;47.042;15.498;2024-03-17T02:34:36;97506.50;;;5.14;100.00
57442;BME280;43284;47.042;15.498;2024-03-17T02:37:02;97507.38;;;5.11;100.00
57442;BME280;43284;47.042;15.498;2024-03-17T02:39:29;97513.56;;;5.06;100.00
57442;BME280;43284;47.042;15.498;2024-03-17T02:42:06;97515.44;;;4.99;100.00
57442;BME280;43284;47.042;15.498;2024-03-17T02:44:33;97515.53;;;4.94;100.00
57442;BME280;43284;47.042;15.498;2024-03-17T02:47:00;97517.47;;;4.83;100.00
57442;BME280;43284;47.042;15.498;2024-03-17T02:49:26;97521.84;;;4.81;100.00
57442;BME280;43284;47.042;15.498;2024-03-17T02:51:55;97526.31;;;4.73;100.00
57442;BME280;43284;47.042;15.498;2024-03-17T02:54:21;97527.34;;;4.64;100.00
57442;BME280;43284;47.042;15.498;2024-03-17T02:56:48;97536.84;;;4.64;100.00
57442;BME280;43284;47.042;15.498;2024-03-17T02:59:13;97543.78;;;4.62;100.00
57442;BME280;43284;47.042;15.498;2024-03-17T03:01:39;97536.88;;;4.62;100.00
57442;BME280;43284;47.042;15.498;2024-03-17T03:04:05;97530.94;;;4.56;100.00
57442;BME280;43284;47.042;15.498;2024-03-17T03:06:32;97543.00;;;4.57;100.00
57442;BME280;43284;47.042;15.498;2024-03-17T03:08:58;97546.31;;;4.63;100.00
57442;BME280;43284;47.042;15.498;2024-03-17T03:11:24;97535.19;;;4.60;100.00
57442;BME280;43284;47.042;15.498;2024-03-17T03:13:49;97536.13;;;4.57;100.00
57442;BME280;43284;47.042;15.498;2024-03-17T03:16:15;97533.53;;;4.57;100.00
57442;BME280;43284;47.042;15.498;2024-03-17T03:18:41;97530.06;;;4.57;100.00
57442;BME280;43284;47.042;15.498;2024-03-17T03:21:07;97525.03;;;4.49;100.00
57442;BME280;43284;47.042;15.498;2024-03-17T03:23:33;97531.28;;;4.37;100.00
57442;BME280;43284;47.042;15.498;2024-03-17T03:26:00;97523.69;;;4.28;100.00
57442;BME280;43284;47.042;15.498;2024-03-17T03:28:29;97535.69;;;4.30;100.00
57442;BME280;43284;47.042;15.498;2024-03-17T03:30:55;97537.44;;;4.30;100.00
57442;BME280;43284;47.042;15.498;2024-03-17T03:33:21;97534.91;;;4.27;100.00
57442;BME280;43284;47.042;15.498;2024-03-17T03:35:47;97528.09;;;4.23;100.00
57442;BME280;43284;47.042;15.498;2024-03-17T03:38:13;97535.88;;;4.21;100.00
57442;BME280;43284;47.042;15.498;2024-03-17T03:40:42;97524.75;;;4.18;100.00
57442;BME280;43284;47.042;15.498;2024-03-17T03:43:11;97524.69;;;4.21;100.00
57442;BME280;43284;47.042;15.498;2024-03-17T03:45:39;97526.38;;;4.22;100.00
57442;BME280;43284;47.042;15.498;2024-03-17T03:48:06;97533.28;;;4.21;100.00
57442;BME280;43284;47.042;15.498;2024-03-17T03:50:31;97535.03;;;4.21;100.00
57442;BME280;43284;47.042;15.498;2024-03-17T03:52:58;97529.09;;;4.16;100.00
57442;BME280;43284;47.042;15.498;2024-03-17T03:55:24;97529.00;;;4.20;100.00
57442;BME280;43284;47.042;15.498;2024-03-17T03:57:50;97533.38;;;4.17;100.00
57442;BME280;43284;47.042;15.498;2024-03-17T04:00:21;97537.72;;;4.15;100.00
57442;BME280;43284;47.042;15.498;2024-03-17T04:02:48;97535.97;;;4.15;100.00
57442;BME280;43284;47.042;15.498;2024-03-17T04:05:15;97538.59;;;4.13;100.00
57442;BME280;43284;47.042;15.498;2024-03-17T04:07:40;97540.38;;;4.11;100.00
57442;BME280;43284;47.042;15.498;2024-03-17T04:10:09;97536.09;;;4.09;100.00
57442;BME280;43284;47.042;15.498;2024-03-17T04:12:35;97549.91;;;4.08;100.00
57442;BME280;43284;47.042;15.498;2024-03-17T04:15:01;97545.63;;;4.05;100.00
57442;BME280;43284;47.042;15.498;2024-03-17T04:17:27;97541.31;;;4.06;100.00
57442;BME280;43284;47.042;15.498;2024-03-17T04:19:54;97546.47;;;4.07;100.00
57442;BME280;43284;47.042;15.498;2024-03-17T04:22:20;97540.41;;;4.08;100.00
57442;BME280;43284;47.042;15.498;2024-03-17T04:24:47;97546.47;;;4.07;100.00
57442;BME280;43284;47.042;15.498;2024-03-17T04:27:19;97544.72;;;4.09;100.00
57442;BME280;43284;47.042;15.498;2024-03-17T04:29:47;97551.66;;;4.06;100.00
57442;BME280;43284;47.042;15.498;2024-03-17T04:32:13;97559.72;;;3.86;100.00
57442;BME280;43284;47.042;15.498;2024-03-17T04:34:39;97564.81;;;3.90;100.00
57442;BME280;43284;47.042;15.498;2024-03-17T04:37:04;97556.22;;;3.90;100.00
57442;BME280;43284;47.042;15.498;2024-03-17T04:39:30;97563.91;;;3.96;100.00
57442;BME280;43284;47.042;15.498;2024-03-17T04:41:56;97571.56;;;4.01;100.00
57442;BME280;43284;47.042;15.498;2024-03-17T04:44:22;97573.25;;;4.05;100.00
57442;BME280;43284;47.042;15.498;2024-03-17T04:46:48;97573.25;;;4.05;100.00
57442;BME280;43284;47.042;15.498;2024-03-17T04:49:14;97567.41;;;3.92;100.00
57442;BME280;43284;47.042;15.498;2024-03-17T04:51:39;97583.75;;;3.94;100.00
57442;BME280;43284;47.042;15.498;2024-03-17T04:54:05;97587.19;;;3.95;100.00
57442;BME280;43284;47.042;15.498;2024-03-17T04:56:33;97584.59;;;3.96;100.00
57442;BME280;43284;47.042;15.498;2024-03-17T04:58:59;97586.28;;;3.96;100.00
57442;BME280;43284;47.042;15.498;2024-03-17T05:01:24;97586.28;;;3.97;100.00
57442;BME280;43284;47.042;15.498;2024-03-17T05:03:53;97589.72;;;3.98;100.00
57442;BME280;43284;47.042;15.498;2024-03-17T05:06:18;97591.38;;;4.03;100.00
57442;BME280;43284;47.042;15.498;2024-03-17T05:08:44;97595.63;;;4.07;100.00
57442;BME280;43284;47.042;15.498;2024-03-17T05:11:10;97595.03;;;3.88;100.00
57442;BME280;43284;47.042;15.498;2024-03-17T05:13:37;97601.03;;;3.90;100.00
57442;BME280;43284;47.042;15.498;2024-03-17T05:16:05;97600.56;;;3.62;100.00
57442;BME280;43284;47.042;15.498;2024-03-17T05:18:31;97609.09;;;3.69;100.00
57442;BME280;43284;47.042;15.498;2024-03-17T05:21:04;97603.91;;;3.70;100.00
57442;BME280;43284;47.042;15.498;2024-03-17T05:23:31;97592.66;;;3.73;100.00
57442;BME280;43284;47.042;15.498;2024-03-17T05:25:57;97599.44;;;3.80;100.00
57442;BME280;43284;47.042;15.498;2024-03-17T05:28:24;97596.00;;;3.81;100.00
57442;BME280;43284;47.042;15.498;2024-03-17T05:30:50;97603.78;;;3.78;100.00
57442;BME280;43284;47.042;15.498;2024-03-17T05:33:20;97599.81;;;3.56;100.00
57442;BME280;43284;47.042;15.498;2024-03-17T05:35:50;97598.06;;;3.56;100.00
57442;BME280;43284;47.042;15.498;2024-03-17T05:38:29;97602.38;;;3.59;100.00
57442;BME280;43284;47.042;15.498;2024-03-17T05:40:59;97604.06;;;3.60;100.00
57442;BME280;43284;47.042;15.498;2024-03-17T05:43:26;97612.66;;;3.62;100.00
57442;BME280;43284;47.042;15.498;2024-03-17T05:45:58;97609.22;;;3.61;100.00
57442;BME280;43284;47.042;15.498;2024-03-17T05:48:23;97607.50;;;3.60;100.00
57442;BME280;43284;47.042;15.498;2024-03-17T05:50:52;97606.63;;;3.61;100.00
57442;BME280;43284;47.042;15.498;2024-03-17T05:53:18;97610.91;;;3.62;100.00
57442;BME280;43284;47.042;15.498;2024-03-17T05:55:44;97618.59;;;3.67;100.00
57442;BME280;43284;47.042;15.498;2024-03-17T05:58:13;97614.19;;;3.77;100.00
57442;BME280;43284;47.042;15.498;2024-03-17T06:00:39;97617.56;;;3.80;100.00
57442;BME280;43284;47.042;15.498;2024-03-17T06:03:06;97610.63;;;3.82;100.00
57442;BME280;43284;47.042;15.498;2024-03-17T06:05:39;97611.44;;;3.87;100.00
57442;BME280;43284;47.042;15.498;2024-03-17T06:08:09;97609.56;;;3.96;100.00
57442;BME280;43284;47.042;15.498;2024-03-17T06:10:36;97619.88;;;4.00;100.00
57442;BME280;43284;47.042;15.498;2024-03-17T06:13:03;97620.63;;;4.07;100.00
57442;BME280;43284;47.042;15.498;2024-03-17T06:15:29;97613.59;;;4.15;100.00
57442;BME280;43284;47.042;15.498;2024-03-17T06:17:55;97614.34;;;4.22;100.00
57442;BME280;43284;47.042;15.498;2024-03-17T06:20:22;97622.84;;;4.28;100.00
57442;BME280;43284;47.042;15.498;2024-03-17T06:22:49;97632.28;;;4.34;100.00
57442;BME280;43284;47.042;15.498;2024-03-17T06:25:14;97631.34;;;4.38;100.00
57442;BME280;43284;47.042;15.498;2024-03-17T06:27:40;97638.13;;;4.45;100.00
57442;BME280;43284;47.042;15.498;2024-03-17T06:30:06;97640.53;;;4.56;100.00
57442;BME280;43284;47.042;15.498;2024-03-17T06:32:32;97644.59;;;4.71;100.00
57442;BME280;43284;47.042;15.498;2024-03-17T06:35:02;97635.94;;;4.72;100.00
57442;BME280;43284;47.042;15.498;2024-03-17T06:37:27;97641.94;;;4.74;100.00
57442;BME280;43284;47.042;15.498;2024-03-17T06:39:53;97655.56;;;4.85;100.00
57442;BME280;43284;47.042;15.498;2024-03-17T06:42:19;97651.19;;;4.87;100.00
57442;BME280;43284;47.042;15.498;2024-03-17T06:44:44;97650.16;;;4.98;100.00
57442;BME280;43284;47.042;15.498;2024-03-17T06:47:10;97652.56;;;5.08;100.00
57442;BME280;43284;47.042;15.498;2024-03-17T06:49:36;97650.63;;;5.18;100.00
57442;BME280;43284;47.042;15.498;2024-03-17T06:52:02;97648.81;;;5.25;100.00
57442;BME280;43284;47.042;15.498;2024-03-17T06:54:27;97644.94;;;5.44;100.00
57442;BME280;43284;47.042;15.498;2024-03-17T06:56:53;97641.06;;;5.64;100.00
57442;BME280;43284;47.042;15.498;2024-03-17T06:59:18;97642.75;;;5.66;100.00
57442;BME280;43284;47.042;15.498;2024-03-17T07:01:46;97640.09;;;5.71;100.00
57442;BME280;43284;47.042;15.498;2024-03-17T07:04:12;97639.56;;;5.94;100.00
57442;BME280;43284;47.042;15.498;2024-03-17T07:06:38;97642.78;;;6.05;100.00
57442;BME280;43284;47.042;15.498;2024-03-17T07:09:03;97640.03;;;6.13;100.00
57442;BME280;43284;47.042;15.498;2024-03-17T07:11:29;97641.63;;;6.18;100.00
57442;BME280;43284;47.042;15.498;2024-03-17T07:13:54;97643.22;;;6.24;100.00
57442;BME280;43284;47.042;15.498;2024-03-17T07:16:20;97643.81;;;6.37;100.00
57442;BME280;43284;47.042;15.498;2024-03-17T07:18:51;97634.25;;;6.37;100.00
57442;BME280;43284;47.042;15.498;2024-03-17T07:21:18;97637.59;;;6.43;100.00
57442;BME280;43284;47.042;15.498;2024-03-17T07:23:44;97630.47;;;6.51;100.00
57442;BME280;43284;47.042;15.498;2024-03-17T07:26:10;97638.94;;;6.59;100.00
57442;BME280;43284;47.042;15.498;2024-03-17T07:28:35;97629.63;;;6.85;100.00
57442;BME280;43284;47.042;15.498;2024-03-17T07:31:06;97631.28;;;6.87;100.00
57442;BME280;43284;47.042;15.498;2024-03-17T07:33:33;97629.28;;;6.97;100.00
57442;BME280;43284;47.042;15.498;2024-03-17T07:35:59;97624.28;;;7.22;100.00
57442;BME280;43284;47.042;15.498;2024-03-17T07:38:31;97623.53;;;7.17;100.00
57442;BME280;43284;47.042;15.498;2024-03-17T07:41:07;97627.59;;;7.27;100.00
57442;BME280;43284;47.042;15.498;2024-03-17T07:43:37;97622.56;;;7.21;100.00
57442;BME280;43284;47.042;15.498;2024-03-17T07:46:10;97618.13;;;7.26;100.00
57442;BME280;43284;47.042;15.498;2024-03-17T07:48:44;97614.31;;;7.38;100.00
57442;BME280;43284;47.042;15.498;2024-03-17T07:51:12;97612.38;;;7.45;100.00
57442;BME280;43284;47.042;15.498;2024-03-17T07:53:48;97614.81;;;7.51;100.00
57442;BME280;43284;47.042;15.498;2024-03-17T07:56:15;97618.59;;;7.69;100.00
57442;BME280;43284;47.042;15.498;2024-03-17T07:58:44;97610.59;;;7.76;100.00
57442;BME280;43284;47.042;15.498;2024-03-17T08:01:16;97616.78;;;8.00;100.00
57442;BME280;43284;47.042;15.498;2024-03-17T08:03:45;97623.00;;;8.24;100.00
57442;BME280;43284;47.042;15.498;2024-03-17T08:06:12;97617.56;;;8.31;100.00
57442;BME280;43284;47.042;15.498;2024-03-17T08:08:37;97619.25;;;8.33;100.00
57442;BME280;43284;47.042;15.498;2024-03-17T08:11:03;97612.59;;;8.51;100.00
57442;BME280;43284;47.042;15.498;2024-03-17T08:13:35;97611.38;;;8.61;100.00
57442;BME280;43284;47.042;15.498;2024-03-17T08:16:06;97606.16;;;8.61;100.00
57442;BME280;43284;47.042;15.498;2024-03-17T08:18:34;97611.53;;;8.57;100.00
57442;BME280;43284;47.042;15.498;2024-03-17T08:21:01;97608.69;;;8.64;100.00
57442;BME280;43284;47.042;15.498;2024-03-17T08:23:32;97596.81;;;9.06;100.00
57442;BME280;43284;47.042;15.498;2024-03-17T08:26:00;97597.03;;;9.25;100.00
57442;BME280;43284;47.042;15.498;2024-03-17T08:28:27;97590.50;;;9.37;100.00
57442;BME280;43284;47.042;15.498;2024-03-17T08:31:01;97594.16;;;9.31;100.00
57442;BME280;43284;47.042;15.498;2024-03-17T08:33:28;97594.53;;;9.45;100.00
57442;BME280;43284;47.042;15.498;2024-03-17T08:36:02;97594.75;;;9.63;100.00
57442;BME280;43284;47.042;15.498;2024-03-17T08:38:28;97597.34;;;9.63;99.49
57442;BME280;43284;47.042;15.498;2024-03-17T08:40:57;97591.41;;;9.81;100.00
57442;BME280;43284;47.042;15.498;2024-03-17T08:43:23;97589.91;;;9.76;100.00
57442;BME280;43284;47.042;15.498;2024-03-17T08:46:18;97589.78;;;10.01;100.00
57442;BME280;43284;47.042;15.498;2024-03-17T08:48:44;97583.53;;;10.05;96.66
57442;BME280;43284;47.042;15.498;2024-03-17T08:51:10;97576.22;;;10.15;92.78
57442;BME280;43284;47.042;15.498;2024-03-17T08:53:36;97587.25;;;10.21;97.26
57442;BME280;43284;47.042;15.498;2024-03-17T08:56:06;97573.06;;;10.27;94.40
57442;BME280;43284;47.042;15.498;2024-03-17T08:58:32;97570.25;;;10.33;91.85
57442;BME280;43284;47.042;15.498;2024-03-17T09:00:58;97567.41;;;10.60;79.57
57442;BME280;43284;47.042;15.498;2024-03-17T09:03:24;97564.94;;;10.57;81.00
57442;BME280;43284;47.042;15.498;2024-03-17T09:05:52;97564.88;;;10.79;84.19
57442;BME280;43284;47.042;15.498;2024-03-17T09:08:22;97554.94;;;11.06;73.73
57442;BME280;43284;47.042;15.498;2024-03-17T09:10:51;97558.81;;;10.97;77.21
57442;BME280;43284;47.042;15.498;2024-03-17T09:13:23;97559.28;;;11.07;79.94
57442;BME280;43284;47.042;15.498;2024-03-17T09:15:53;97557.63;;;11.25;76.08
57442;BME280;43284;47.042;15.498;2024-03-17T09:18:23;97547.16;;;11.63;66.71
57442;BME280;43284;47.042;15.498;2024-03-17T09:21:08;97541.84;;;11.83;72.05
57442;BME280;43284;47.042;15.498;2024-03-17T09:23:36;97541.50;;;11.72;65.42
57442;BME280;43284;47.042;15.498;2024-03-17T09:26:06;97538.34;;;11.83;70.60
57442;BME280;43284;47.042;15.498;2024-03-17T09:28:36;97531.41;;;11.82;65.73
57442;BME280;43284;47.042;15.498;2024-03-17T09:31:02;97538.41;;;12.00;64.00
57442;BME280;43284;47.042;15.498;2024-03-17T09:33:30;97522.69;;;12.00;64.00
57442;BME280;43284;47.042;15.498;2024-03-17T09:35:58;97533.66;;;12.08;60.12
57442;BME280;43284;47.042;15.498;2024-03-17T09:38:26;97525.75;;;12.27;63.81
57442;BME280;43284;47.042;15.498;2024-03-17T09:40:53;97530.00;;;12.30;64.14
57442;BME280;43284;47.042;15.498;2024-03-17T09:43:23;97533.47;;;12.48;64.89
57442;BME280;43284;47.042;15.498;2024-03-17T09:45:50;97510.59;;;12.85;56.14
57442;BME280;43284;47.042;15.498;2024-03-17T09:48:27;97518.66;;;12.82;58.65
57442;BME280;43284;47.042;15.498;2024-03-17T09:50:55;97516.34;;;12.75;57.84
57442;BME280;43284;47.042;15.498;2024-03-17T09:53:26;97509.56;;;12.54;55.88
57442;BME280;43284;47.042;15.498;2024-03-17T09:56:00;97508.94;;;12.66;57.83
57442;BME280;43284;47.042;15.498;2024-03-17T09:58:27;97509.38;;;12.74;58.26
57442;BME280;43284;47.042;15.498;2024-03-17T10:00:53;97502.72;;;12.85;52.30
57442;BME280;43284;47.042;15.498;2024-03-17T10:06:27;97499.22;;;13.02;53.10
57442;BME280;43284;47.042;15.498;2024-03-17T10:08:54;97504.50;;;13.17;54.33
57442;BME280;43284;47.042;15.498;2024-03-17T10:11:32;97512.56;;;13.14;59.07
57442;BME280;43284;47.042;15.498;2024-03-17T10:16:31;97492.09;;;13.37;53.91
57442;BME280;43284;47.042;15.498;2024-03-17T10:19:12;97485.50;;;13.46;55.92
57442;BME280;43284;47.042;15.498;2024-03-17T10:21:46;97486.78;;;13.54;58.06
57442;BME280;43284;47.042;15.498;2024-03-17T10:26:47;97472.88;;;13.84;50.15
57442;BME280;43284;47.042;15.498;2024-03-17T10:29:32;97467.81;;;14.11;52.06
57442;BME280;43284;47.042;15.498;2024-03-17T10:32:12;97461.56;;;13.98;51.48
57442;BME280;43284;47.042;15.498;2024-03-17T10:34:39;97468.16;;;14.05;50.57
57442;BME280;43284;47.042;15.498;2024-03-17T10:37:11;97469.00;;;14.06;54.97
57442;BME280;43284;47.042;15.498;2024-03-17T10:39:51;97472.09;;;14.12;55.94
57442;BME280;43284;47.042;15.498;2024-03-17T10:42:25;97469.31;;;14.15;54.63
57442;BME280;43284;47.042;15.498;2024-03-17T10:44:55;97468.16;;;14.05;52.97
57442;BME280;43284;47.042;15.498;2024-03-17T10:47:26;97457.94;;;13.85;53.25
57442;BME280;43284;47.042;15.498;2024-03-17T10:49:54;97455.97;;;14.04;51.06
57442;BME280;43284;47.042;15.498;2024-03-17T10:52:23;97453.81;;;14.11;54.96
57442;BME280;43284;47.042;15.498;2024-03-17T10:54:55;97450.69;;;14.34;50.91
57442;BME280;43284;47.042;15.498;2024-03-17T11:00:04;97448.59;;;14.25;49.94
57442;BME280;43284;47.042;15.498;2024-03-17T11:02:32;97447.81;;;14.23;50.97
57442;BME280;43284;47.042;15.498;2024-03-17T11:05:14;97448.00;;;14.50;55.18
57442;BME280;43284;47.042;15.498;2024-03-17T11:07:41;97446.44;;;14.62;53.24
57442;BME280;43284;47.042;15.498;2024-03-17T11:10:20;97440.81;;;14.68;51.19
57442;BME280;43284;47.042;15.498;2024-03-17T11:12:59;97441.34;;;14.73;52.82
57442;BME280;43284;47.042;15.498;2024-03-17T11:20:35;97432.16;;;15.09;55.13
57442;BME280;43284;47.042;15.498;2024-03-17T11:23:03;97424.34;;;15.22;54.66
57442;BME280;43284;47.042;15.498;2024-03-17T11:28:06;97418.72;;;15.41;53.11
57442;BME280;43284;47.042;15.498;2024-03-17T11:38:58;97411.19;;;15.35;50.89
57442;BME280;43284;47.042;15.498;2024-03-17T11:41:43;97409.59;;;15.47;53.96
57442;BME280;43284;47.042;15.498;2024-03-17T11:49:25;97404.75;;;15.53;47.90
57442;BME280;43284;47.042;15.498;2024-03-17T11:51:57;97395.59;;;15.32;49.91
57442;BME280;43284;47.042;15.498;2024-03-17T11:54:26;97399.69;;;15.50;51.59
57442;BME280;43284;47.042;15.498;2024-03-17T11:57:03;97392.38;;;15.68;49.85
57442;BME280;43284;47.042;15.498;2024-03-17T11:59:30;97385.28;;;15.56;49.29
57442;BME280;43284;47.042;15.498;2024-03-17T12:01:56;97385.38;;;15.54;49.18
57442;BME280;43284;47.042;15.498;2024-03-17T12:04:24;97388.69;;;15.43;49.34
57442;BME280;43284;47.042;15.498;2024-03-17T12:06:58;97389.34;;;15.47;50.58
57442;BME280;43284;47.042;15.498;2024-03-17T12:09:29;97374.44;;;15.60;51.81
57442;BME280;43284;47.042;15.498;2024-03-17T12:12:04;97375.81;;;15.39;49.25
57442;BME280;43284;47.042;15.498;2024-03-17T12:14:31;97366.13;;;15.66;50.70
57442;BME280;43284;47.042;15.498;2024-03-17T12:19:25;97353.09;;;15.78;52.21
57442;BME280;43284;47.042;15.498;2024-03-17T12:21:53;97343.84;;;15.98;47.18
57442;BME280;43284;47.042;15.498;2024-03-17T12:24:21;97344.94;;;16.08;50.93
57442;BME280;43284;47.042;15.498;2024-03-17T12:26:50;97346.00;;;16.18;50.80
57442;BME280;43284;47.042;15.498;2024-03-17T12:29:32;97331.44;;;16.13;48.17
57442;BME280;43284;47.042;15.498;2024-03-17T12:32:00;97334.50;;;16.32;49.48
57442;BME280;43284;47.042;15.498;2024-03-17T12:34:32;97336.38;;;16.56;49.01
57442;BME280;43284;47.042;15.498;2024-03-17T12:37:01;97331.94;;;16.69;50.15
57442;BME280;43284;47.042;15.498;2024-03-17T12:39:29;97330.78;;;16.73;47.78
57442;BME280;43284;47.042;15.498;2024-03-17T12:42:09;97319.06;;;16.52;44.40
57442;BME280;43284;47.042;15.498;2024-03-17T12:44:40;97311.25;;;16.50;43.71
57442;BME280;43284;47.042;15.498;2024-03-17T12:47:22;97307.00;;;16.73;47.87
57442;BME280;43284;47.042;15.498;2024-03-17T12:49:55;97312.28;;;16.86;43.39
57442;BME280;43284;47.042;15.498;2024-03-17T12:52:22;97299.94;;;16.74;45.57
57442;BME280;43284;47.042;15.498;2024-03-17T13:00:38;97291.59;;;17.17;46.19
57442;BME280;43284;47.042;15.498;2024-03-17T13:03:07;97281.59;;;16.96;42.01
57442;BME280;43284;47.042;15.498;2024-03-17T13:05:34;97277.47;;;17.05;42.80
57442;BME280;43284;47.042;15.498;2024-03-17T13:08:01;97268.66;;;17.17;42.51
57442;BME280;43284;47.042;15.498;2024-03-17T13:10:29;97272.56;;;17.36;44.09
57442;BME280;43284;47.042;15.498;2024-03-17T13:13:00;97270.88;;;17.35;44.63
57442;BME280;43284;47.042;15.498;2024-03-17T13:15:31;97262.88;;;17.12;41.25
57442;BME280;43284;47.042;15.498;2024-03-17T13:18:04;97260.88;;;17.27;44.64
57442;BME280;43284;47.042;15.498;2024-03-17T13:20:31;97263.03;;;17.57;47.06
57442;BME280;43284;47.042;15.498;2024-03-17T13:22:58;97251.03;;;17.64;47.72
57442;BME280;43284;47.042;15.498;2024-03-17T13:25:28;97258.28;;;17.74;45.05
57442;BME280;43284;47.042;15.498;2024-03-17T13:28:02;97254.84;;;17.25;42.42
57442;BME280;43284;47.042;15.498;2024-03-17T13:30:30;97255.81;;;17.59;44.59
57442;BME280;43284;47.042;15.498;2024-03-17T13:32:57;97247.31;;;17.32;42.09
57442;BME280;43284;47.042;15.498;2024-03-17T13:35:27;97249.38;;;17.28;42.60